Airport View

Enter AWOS ICAO identifier for current METAR.

KFNL for example

KUCY 240815Z AUTO 19003KT 9SM 22/21 A2987 RMK A01

24 Jul 2017 08:26

Frequency: 135.325

Phone: 731-885-9161

Other Area AWOS: KPHT - KM25 - KDYR - KHZD

TAF KPAH 240520Z 2406/2506 VRB03KT P6SM SCT250 FM240900 00000KT 4SM BR SCT250 FM241300 VRB03KT P6SM FEW035 FM250100 VRB03KT P6SM SKC